createdAt,value
2023-04-08T00:00:25.770Z,30
2023-04-08T00:01:32.600Z,32
2023-04-08T00:02:39.577Z,31
2023-04-08T00:03:46.128Z,31
2023-04-08T00:04:53.058Z,36
2023-04-08T00:05:59.671Z,31
2023-04-08T00:07:06.463Z,30
2023-04-08T00:08:13.269Z,37
2023-04-08T00:09:20.099Z,39
2023-04-08T00:10:26.878Z,35
2023-04-08T00:11:33.611Z,36
2023-04-08T00:12:40.326Z,27
2023-04-08T00:13:46.990Z,30
2023-04-08T00:14:53.762Z,36
2023-04-08T00:16:00.722Z,30
2023-04-08T00:17:07.591Z,36
2023-04-08T00:18:14.250Z,35
2023-04-08T00:19:20.989Z,34
2023-04-08T00:20:27.869Z,42
2023-04-08T00:21:34.635Z,45
2023-04-08T00:22:41.365Z,34
2023-04-08T00:23:48.132Z,35
2023-04-08T00:24:54.908Z,35
2023-04-08T00:26:01.651Z,33
2023-04-08T00:27:08.494Z,29
2023-04-08T00:28:15.171Z,31
2023-04-08T00:29:21.894Z,34
2023-04-08T00:30:28.638Z,36
2023-04-08T00:31:35.518Z,31
2023-04-08T00:32:42.403Z,29
2023-04-08T00:33:49.091Z,29
2023-04-08T00:34:55.914Z,27
2023-04-08T00:36:02.781Z,32
2023-04-08T00:37:09.566Z,30
2023-04-08T00:38:16.450Z,34
2023-04-08T00:39:23.161Z,25
2023-04-08T00:40:29.982Z,32
2023-04-08T00:41:36.791Z,31
2023-04-08T00:42:43.499Z,37
2023-04-08T00:43:50.324Z,35
2023-04-08T00:44:57.041Z,36
2023-04-08T00:46:03.817Z,30
2023-04-08T00:47:10.487Z,33
2023-04-08T00:48:17.391Z,27
2023-04-08T00:49:24.112Z,32
2023-04-08T00:50:30.801Z,27
2023-04-08T00:51:37.467Z,32
2023-04-08T00:52:44.181Z,28
2023-04-08T00:53:51.057Z,28
2023-04-08T00:54:57.897Z,31
2023-04-08T00:56:04.575Z,28
2023-04-08T00:57:11.358Z,29
2023-04-08T00:58:18.158Z,30
2023-04-08T00:59:24.977Z,37
2023-04-08T01:00:31.825Z,35
2023-04-08T01:01:38.663Z,29
2023-04-08T01:02:50.516Z,35
2023-04-08T01:04:04.951Z,27
2023-04-08T01:05:16.700Z,29
2023-04-08T01:06:23.544Z,30
2023-04-08T01:07:36.062Z,29
2023-04-08T01:08:45.680Z,32
2023-04-08T01:09:52.405Z,29
2023-04-08T01:10:59.186Z,26
2023-04-08T01:12:05.929Z,29
2023-04-08T01:13:12.627Z,36
2023-04-08T01:14:19.384Z,30
2023-04-08T01:15:26.109Z,31
2023-04-08T01:16:32.878Z,26
2023-04-08T01:17:39.623Z,37
2023-04-08T01:18:46.386Z,39
2023-04-08T01:19:53.051Z,33
2023-04-08T01:20:59.856Z,27
2023-04-08T01:22:06.629Z,27
2023-04-08T01:23:21.507Z,37
2023-04-08T01:24:38.400Z,32
2023-04-08T01:25:45.351Z,29
2023-04-08T01:26:57.846Z,27
2023-04-08T01:28:04.482Z,29
2023-04-08T01:29:11.160Z,26
2023-04-08T01:30:17.912Z,27
2023-04-08T01:31:24.833Z,27
2023-04-08T01:32:31.637Z,26
2023-04-08T01:33:38.247Z,30
2023-04-08T01:34:45.018Z,35
2023-04-08T01:35:52.095Z,40
2023-04-08T01:36:58.777Z,30
2023-04-08T01:38:05.538Z,32
2023-04-08T01:39:12.217Z,26
2023-04-08T01:40:18.987Z,30
2023-04-08T01:41:25.880Z,29
2023-04-08T01:42:32.686Z,32
2023-04-08T01:43:39.373Z,30
2023-04-08T01:44:46.073Z,25
2023-04-08T01:45:52.798Z,26
2023-04-08T01:46:59.677Z,25
2023-04-08T01:48:06.499Z,32
2023-04-08T01:49:13.254Z,25
2023-04-08T01:50:20.017Z,31
2023-04-08T01:51:26.736Z,35
2023-04-08T01:52:33.438Z,39
2023-04-08T01:53:40.331Z,33
2023-04-08T01:54:47.039Z,35
2023-04-08T01:55:53.801Z,29
2023-04-08T01:57:03.092Z,27
2023-04-08T01:58:09.845Z,27
2023-04-08T01:59:16.594Z,32
2023-04-08T02:00:23.331Z,42
2023-04-08T02:01:30.264Z,36
2023-04-08T02:02:37.071Z,32
2023-04-08T02:03:43.755Z,34
2023-04-08T02:04:50.512Z,31
2023-04-08T02:05:57.100Z,28
2023-04-08T02:07:03.791Z,29
2023-04-08T02:08:10.591Z,28
2023-04-08T02:09:17.372Z,25
2023-04-08T02:10:24.212Z,26
2023-04-08T02:11:31.012Z,37
2023-04-08T02:12:37.751Z,29
2023-04-08T02:13:44.508Z,36
2023-04-08T02:14:51.320Z,41
2023-04-08T02:15:58.299Z,29
2023-04-08T02:17:07.674Z,31
2023-04-08T02:18:22.385Z,32
2023-04-08T02:19:29.338Z,33
2023-04-08T02:20:36.213Z,41
2023-04-08T02:21:43.056Z,38
2023-04-08T02:22:49.857Z,34
2023-04-08T02:24:06.753Z,36
2023-04-08T02:25:13.495Z,26
2023-04-08T02:26:20.238Z,26
2023-04-08T02:27:26.963Z,29
2023-04-08T02:28:33.712Z,25
2023-04-08T02:29:40.651Z,41
2023-04-08T02:30:47.400Z,37
2023-04-08T02:31:54.256Z,26
2023-04-08T02:33:00.878Z,28
2023-04-08T02:34:07.604Z,29
2023-04-08T02:35:14.313Z,34
2023-04-08T02:36:20.980Z,31
2023-04-08T02:37:27.669Z,26
2023-04-08T02:38:34.403Z,31
2023-04-08T02:39:41.215Z,38
2023-04-08T02:40:47.946Z,34
2023-04-08T02:41:54.726Z,29
2023-04-08T02:43:01.596Z,32
2023-04-08T02:44:08.216Z,29
2023-04-08T02:45:14.978Z,32
2023-04-08T02:46:21.849Z,34
2023-04-08T02:47:28.573Z,35
2023-04-08T02:48:35.318Z,38
2023-04-08T02:49:42.024Z,43
2023-04-08T02:50:48.876Z,33
2023-04-08T02:51:55.600Z,30
2023-04-08T02:53:02.305Z,35
2023-04-08T02:54:09.017Z,34
2023-04-08T02:55:15.741Z,35
2023-04-08T02:56:22.682Z,47
2023-04-08T02:57:29.440Z,30
2023-04-08T02:58:36.201Z,31
2023-04-08T02:59:43.038Z,30
2023-04-08T03:00:49.870Z,35
2023-04-08T03:01:56.820Z,42
2023-04-08T03:03:03.624Z,45
2023-04-08T03:04:10.276Z,40
2023-04-08T03:05:17.069Z,35
2023-04-08T03:06:23.951Z,37
2023-04-08T03:07:30.876Z,36
2023-04-08T03:08:37.779Z,42
2023-04-08T03:09:44.508Z,38
2023-04-08T03:10:51.320Z,43
2023-04-08T03:11:58.106Z,36
2023-04-08T03:13:04.819Z,44
2023-04-08T03:14:11.700Z,39
2023-04-08T03:15:18.416Z,35
2023-04-08T03:16:25.155Z,32
2023-04-08T03:17:31.844Z,37
2023-04-08T03:18:38.604Z,34
2023-04-08T03:19:45.359Z,42
2023-04-08T03:20:52.117Z,41
2023-04-08T03:21:58.874Z,40
2023-04-08T03:23:05.624Z,32
2023-04-08T03:24:12.402Z,30
2023-04-08T03:25:19.257Z,35
2023-04-08T03:26:26.017Z,26
2023-04-08T03:27:32.756Z,40
2023-04-08T03:28:39.561Z,32
2023-04-08T03:29:46.358Z,27
2023-04-08T03:30:53.251Z,35
2023-04-08T03:32:00.173Z,32
2023-04-08T03:33:07.551Z,38
2023-04-08T03:34:13.517Z,40
2023-04-08T03:35:20.428Z,42
2023-04-08T03:36:27.184Z,39
2023-04-08T03:37:33.849Z,37
2023-04-08T03:38:40.686Z,44
2023-04-08T03:39:47.523Z,47
2023-04-08T03:40:54.346Z,42
2023-04-08T03:42:01.310Z,48
2023-04-08T03:43:08.039Z,33
2023-04-08T03:44:14.817Z,45
2023-04-08T03:45:21.628Z,36
2023-04-08T03:46:28.592Z,38
2023-04-08T03:47:35.445Z,37
2023-04-08T03:48:42.177Z,40
2023-04-08T03:49:48.988Z,32
2023-04-08T03:50:58.614Z,36
2023-04-08T03:52:05.375Z,33
2023-04-08T03:53:12.215Z,38
2023-04-08T03:54:18.919Z,43
2023-04-08T03:55:25.654Z,31
2023-04-08T03:56:32.410Z,38
2023-04-08T03:57:39.106Z,32
2023-04-08T03:58:45.959Z,37
2023-04-08T03:59:52.742Z,38
2023-04-08T04:00:59.556Z,31
2023-04-08T04:02:06.444Z,35
2023-04-08T04:03:13.385Z,34
2023-04-08T04:04:20.112Z,35
2023-04-08T04:05:26.702Z,35
2023-04-08T04:06:33.537Z,42
2023-04-08T04:07:40.433Z,34
2023-04-08T04:08:47.210Z,39
2023-04-08T04:09:54.048Z,40
2023-04-08T04:11:00.864Z,36
2023-04-08T04:12:07.544Z,34
2023-04-08T04:13:14.312Z,42
2023-04-08T04:14:21.096Z,37
2023-04-08T04:15:27.995Z,43
2023-04-08T04:16:34.630Z,40
2023-04-08T04:17:41.511Z,45
2023-04-08T04:18:48.351Z,45
2023-04-08T04:19:54.960Z,36
2023-04-08T04:21:01.880Z,38
2023-04-08T04:22:08.818Z,44
2023-04-08T04:23:15.544Z,42
2023-04-08T04:24:22.289Z,37
2023-04-08T04:25:29.034Z,41
2023-04-08T04:26:35.850Z,38
2023-04-08T04:27:42.666Z,46
2023-04-08T04:28:50.068Z,45
2023-04-08T04:29:56.135Z,36
2023-04-08T04:31:02.883Z,42
2023-04-08T04:32:09.533Z,35
2023-04-08T04:33:16.436Z,49
2023-04-08T04:34:23.164Z,46
2023-04-08T04:35:29.811Z,51
2023-04-08T04:36:36.552Z,39
2023-04-08T04:37:43.319Z,41
2023-04-08T04:38:50.732Z,47
2023-04-08T04:39:56.999Z,42
2023-04-08T04:41:03.738Z,45
2023-04-08T04:42:10.483Z,35
2023-04-08T04:43:17.187Z,44
2023-04-08T04:44:24.057Z,44
2023-04-08T04:45:30.812Z,43
2023-04-08T04:46:37.600Z,48
2023-04-08T04:47:44.291Z,45
2023-04-08T04:48:51.138Z,49
2023-04-08T04:49:57.847Z,46
2023-04-08T04:51:04.620Z,39
2023-04-08T04:52:11.294Z,49
2023-04-08T04:53:18.001Z,49
2023-04-08T04:54:24.669Z,41
2023-04-08T04:55:31.496Z,47
2023-04-08T04:56:38.222Z,44
2023-04-08T04:57:45.001Z,45
2023-04-08T04:58:52.086Z,52
2023-04-08T04:59:58.577Z,49
2023-04-08T05:01:05.423Z,53
2023-04-08T05:02:12.199Z,42
2023-04-08T05:03:19.133Z,46
2023-04-08T05:04:25.620Z,49
2023-04-08T05:05:32.482Z,47
2023-04-08T05:06:39.263Z,46
2023-04-08T05:07:45.962Z,42
2023-04-08T05:08:52.664Z,35
2023-04-08T05:09:59.374Z,38
2023-04-08T05:11:06.256Z,36
2023-04-08T05:12:13.074Z,43
2023-04-08T05:13:19.798Z,41
2023-04-08T05:14:26.455Z,42
2023-04-08T05:15:33.109Z,32
2023-04-08T05:16:39.977Z,33
2023-04-08T05:17:46.710Z,38
2023-04-08T05:18:53.631Z,30
2023-04-08T05:20:00.315Z,33
2023-04-08T05:21:07.151Z,31
2023-04-08T05:22:13.875Z,32
2023-04-08T05:23:20.657Z,27
2023-04-08T05:24:27.282Z,38
2023-04-08T05:25:34.011Z,33
2023-04-08T05:26:40.712Z,32
2023-04-08T05:27:47.599Z,36
2023-04-08T05:28:54.530Z,39
2023-04-08T05:30:01.335Z,39
2023-04-08T05:31:08.257Z,43
2023-04-08T05:32:15.019Z,36
2023-04-08T05:33:21.780Z,38
2023-04-08T05:34:28.658Z,39
2023-04-08T05:35:35.415Z,42
2023-04-08T05:36:42.327Z,41
2023-04-08T05:37:49.057Z,39
2023-04-08T05:38:55.863Z,45
2023-04-08T05:40:02.642Z,38
2023-04-08T05:41:10.722Z,39
2023-04-08T05:42:17.439Z,30
2023-04-08T05:43:24.222Z,41
2023-04-08T05:44:30.919Z,36
2023-04-08T05:45:37.827Z,35
2023-04-08T05:46:44.594Z,27
2023-04-08T05:47:51.352Z,32
2023-04-08T05:48:58.082Z,33
2023-04-08T05:50:04.890Z,39
2023-04-08T05:51:11.919Z,32
2023-04-08T05:52:18.696Z,34
2023-04-08T05:53:25.403Z,35
2023-04-08T05:54:32.185Z,37
2023-04-08T05:55:38.979Z,36
2023-04-08T05:56:45.804Z,34
2023-04-08T05:57:52.601Z,30
2023-04-08T05:58:59.434Z,33
2023-04-08T06:00:06.288Z,38
2023-04-08T06:01:13.307Z,34
2023-04-08T06:02:20.185Z,39
2023-04-08T06:03:27.211Z,33
2023-04-08T06:04:34.110Z,37
2023-04-08T06:05:40.706Z,27
2023-04-08T06:06:47.518Z,26
2023-04-08T06:07:54.568Z,34
2023-04-08T06:09:01.235Z,32
2023-04-08T06:10:07.972Z,34
2023-04-08T06:11:14.732Z,42
2023-04-08T06:12:21.593Z,33
2023-04-08T06:13:28.430Z,32
2023-04-08T06:14:35.279Z,38
2023-04-08T06:15:44.523Z,34
2023-04-08T06:16:51.439Z,36
2023-04-08T06:17:58.370Z,32
2023-04-08T06:19:05.298Z,32
2023-04-08T06:20:12.066Z,32
2023-04-08T06:21:18.838Z,46
2023-04-08T06:22:25.586Z,31
2023-04-08T06:23:32.508Z,35
2023-04-08T06:24:39.149Z,33
2023-04-08T06:25:45.894Z,37
2023-04-08T06:26:52.625Z,46
2023-04-08T06:27:59.491Z,41
2023-04-08T06:29:06.314Z,38
2023-04-08T06:30:13.145Z,38
2023-04-08T06:31:19.902Z,33
2023-04-08T06:32:26.732Z,30
2023-04-08T06:33:33.531Z,46
2023-04-08T06:34:40.327Z,31
2023-04-08T06:35:47.112Z,31
2023-04-08T06:36:53.940Z,30
2023-04-08T06:38:00.624Z,29
2023-04-08T06:39:07.376Z,39
2023-04-08T06:40:14.210Z,40
2023-04-08T06:41:21.143Z,32
2023-04-08T06:42:27.904Z,38
2023-04-08T06:43:34.832Z,36
2023-04-08T06:44:41.590Z,28
2023-04-08T06:45:48.482Z,26
2023-04-08T06:46:55.307Z,30
2023-04-08T06:48:02.205Z,25
2023-04-08T06:49:09.001Z,44
2023-04-08T06:50:15.787Z,41
2023-04-08T06:51:22.586Z,35
2023-04-08T06:52:29.440Z,27
2023-04-08T06:53:36.249Z,36
2023-04-08T06:54:43.358Z,39
2023-04-08T06:55:50.150Z,31
2023-04-08T06:56:56.890Z,25
2023-04-08T06:58:03.817Z,37
2023-04-08T06:59:10.520Z,49
2023-04-08T07:00:17.263Z,43
2023-04-08T07:01:24.157Z,40
2023-04-08T07:02:31.005Z,32
2023-04-08T07:03:38.017Z,42
2023-04-08T07:04:46.700Z,38
2023-04-08T07:05:51.315Z,40
2023-04-08T07:06:58.183Z,30
2023-04-08T07:08:04.932Z,39
2023-04-08T07:09:11.670Z,32
2023-04-08T07:10:18.501Z,33
2023-04-08T07:11:25.283Z,38
2023-04-08T07:12:32.101Z,26
2023-04-08T07:13:38.896Z,25
2023-04-08T07:14:45.587Z,35
2023-04-08T07:15:52.286Z,27
2023-04-08T07:16:59.141Z,28
2023-04-08T07:18:05.923Z,35
2023-04-08T07:19:12.689Z,29
2023-04-08T07:20:19.549Z,25
2023-04-08T07:21:26.335Z,26
2023-04-08T07:22:33.094Z,25
2023-04-08T07:23:39.886Z,29
2023-04-08T07:24:46.705Z,35
2023-04-08T07:25:53.741Z,30
2023-04-08T07:27:00.508Z,25
2023-04-08T07:28:07.229Z,32
2023-04-08T07:29:13.957Z,25
2023-04-08T07:30:20.914Z,27
2023-04-08T07:31:27.949Z,31
2023-04-08T07:32:34.726Z,25
2023-04-08T07:33:41.450Z,34
2023-04-08T07:34:48.224Z,30
2023-04-08T07:35:55.168Z,25
2023-04-08T07:37:01.825Z,33
2023-04-08T07:38:08.621Z,37
2023-04-08T07:39:15.395Z,34
2023-04-08T07:40:22.099Z,36
2023-04-08T07:41:28.817Z,34
2023-04-08T07:42:35.428Z,35
2023-04-08T07:43:42.308Z,37
2023-04-08T07:44:49.116Z,32
2023-04-08T07:45:57.099Z,39
2023-04-08T07:47:04.032Z,33
2023-04-08T07:48:10.943Z,25
2023-04-08T07:49:17.671Z,30
2023-04-08T07:50:24.451Z,35
2023-04-08T07:51:31.163Z,32
2023-04-08T07:52:37.973Z,25
2023-04-08T07:53:44.790Z,31
2023-04-08T07:54:51.494Z,30
2023-04-08T07:55:58.302Z,38
2023-04-08T07:57:05.125Z,37
2023-04-08T07:58:11.872Z,35
2023-04-08T07:59:18.808Z,32
2023-04-08T08:00:25.575Z,31
2023-04-08T08:01:32.389Z,34
2023-04-08T08:02:39.160Z,33
2023-04-08T08:03:46.189Z,27
2023-04-08T08:04:53.026Z,31
2023-04-08T08:05:59.496Z,27
2023-04-08T08:07:06.178Z,33
2023-04-08T08:08:12.862Z,39
2023-04-08T08:09:19.726Z,34
2023-04-08T08:10:26.508Z,26
2023-04-08T08:11:33.193Z,25
2023-04-08T08:12:39.960Z,35
2023-04-08T08:13:46.699Z,38
2023-04-08T08:14:53.523Z,36
2023-04-08T08:16:00.425Z,30
2023-04-08T08:17:07.107Z,40
2023-04-08T08:18:13.893Z,40
2023-04-08T08:19:20.668Z,36
2023-04-08T08:20:27.409Z,34
2023-04-08T08:21:34.117Z,32
2023-04-08T08:22:50.708Z,33
2023-04-08T08:23:47.710Z,50
2023-04-08T08:24:54.458Z,41
2023-04-08T08:26:01.341Z,31
2023-04-08T08:27:10.970Z,34
2023-04-08T08:28:17.792Z,31
2023-04-08T08:29:24.442Z,25
2023-04-08T08:30:32.301Z,44
2023-04-08T08:31:37.963Z,32
2023-04-08T08:32:44.644Z,28
2023-04-08T08:33:51.582Z,31
2023-04-08T08:34:58.017Z,25
2023-04-08T08:36:04.770Z,25
2023-04-08T08:37:11.685Z,28
2023-04-08T08:38:18.527Z,31
2023-04-08T08:39:25.287Z,25
2023-04-08T08:40:32.055Z,25
2023-04-08T08:41:38.837Z,25
2023-04-08T08:42:45.619Z,25
2023-04-08T08:43:55.047Z,25
2023-04-08T08:45:01.870Z,43
2023-04-08T08:46:08.734Z,25
2023-04-08T08:47:15.465Z,39
2023-04-08T08:48:22.303Z,35
2023-04-08T08:49:29.245Z,43
2023-04-08T08:50:36.018Z,25
2023-04-08T08:51:42.778Z,50
2023-04-08T08:52:49.461Z,42
2023-04-08T08:53:56.209Z,27
2023-04-08T08:55:10.158Z,26
2023-04-08T08:57:16.893Z,38
2023-04-08T08:58:23.596Z,27
2023-04-08T08:59:30.470Z,37
2023-04-08T09:00:37.309Z,39
2023-04-08T09:01:44.321Z,43
2023-04-08T09:02:51.185Z,43
2023-04-08T09:03:57.930Z,25
2023-04-08T09:05:12.541Z,25
2023-04-08T09:06:19.110Z,30
2023-04-08T09:07:25.800Z,43
2023-04-08T09:08:32.590Z,33
2023-04-08T09:09:39.380Z,40
2023-04-08T09:10:51.217Z,25
2023-04-08T09:11:58.044Z,25
2023-04-08T09:13:07.692Z,34
2023-04-08T09:14:14.461Z,25
2023-04-08T09:15:26.252Z,40
2023-04-08T09:16:33.064Z,25
2023-04-08T09:17:39.875Z,41
2023-04-08T09:18:46.469Z,35
2023-04-08T09:19:53.214Z,29
2023-04-08T09:21:10.160Z,38
2023-04-08T09:22:16.893Z,41
2023-04-08T09:23:23.651Z,32
2023-04-08T09:24:40.636Z,26
2023-04-08T09:25:47.349Z,34
2023-04-08T09:26:54.079Z,29
2023-04-08T09:28:00.873Z,25
2023-04-08T09:29:18.685Z,44
2023-04-08T09:30:14.535Z,45
2023-04-08T09:31:21.283Z,25
2023-04-08T09:32:27.953Z,29
2023-04-08T09:33:42.624Z,44
2023-04-08T09:34:49.274Z,46
2023-04-08T09:35:56.055Z,54
2023-04-08T09:37:02.757Z,56
2023-04-08T09:38:09.538Z,60
2023-04-08T09:39:16.378Z,68
2023-04-08T09:40:23.132Z,49
2023-04-08T09:41:29.839Z,64
2023-04-08T09:42:36.576Z,58
2023-04-08T09:43:43.359Z,48
2023-04-08T09:44:53.186Z,44
2023-04-08T09:45:59.967Z,45
2023-04-08T09:47:06.778Z,25
2023-04-08T09:48:16.560Z,40
2023-04-08T09:49:23.065Z,40
2023-04-08T09:50:37.406Z,31
2023-04-08T09:51:44.140Z,41
2023-04-08T09:52:59.151Z,25
2023-04-08T09:54:05.923Z,38
2023-04-08T09:55:12.715Z,48
2023-04-08T09:56:19.442Z,28
2023-04-08T09:57:26.199Z,25
2023-04-08T09:58:40.892Z,25
2023-04-08T09:59:50.376Z,39
2023-04-08T10:00:57.210Z,28
2023-04-08T10:02:04.148Z,57
2023-04-08T10:03:11.193Z,41
2023-04-08T10:04:27.991Z,44
2023-04-08T10:05:34.616Z,36
2023-04-08T10:06:41.456Z,34
2023-04-08T10:07:48.185Z,25
2023-04-08T10:08:54.976Z,27
2023-04-08T10:10:01.714Z,32
2023-04-08T10:11:08.662Z,33
2023-04-08T10:12:15.413Z,26
2023-04-08T10:13:22.118Z,48
2023-04-08T10:14:28.935Z,51
2023-04-08T10:15:35.721Z,64
2023-04-08T10:16:42.672Z,57
2023-04-08T10:17:49.602Z,50
2023-04-08T10:18:56.324Z,50
2023-04-08T10:20:03.024Z,30
2023-04-08T10:21:10.192Z,38
2023-04-08T10:22:27.148Z,46
2023-04-08T10:23:36.649Z,58
2023-04-08T10:24:53.439Z,59
2023-04-08T10:26:10.325Z,43
2023-04-08T10:27:17.148Z,32
2023-04-08T10:28:23.789Z,57
2023-04-08T10:29:30.471Z,54
2023-04-08T10:30:37.190Z,52
2023-04-08T10:31:49.039Z,45
2023-04-08T10:32:56.553Z,36
2023-04-08T10:34:06.000Z,52
2023-04-08T10:35:20.828Z,32
2023-04-08T10:36:32.620Z,26
2023-04-08T10:37:39.293Z,59
2023-04-08T10:38:45.988Z,33
2023-04-08T10:39:52.769Z,36
2023-04-08T10:40:59.574Z,56
2023-04-08T10:42:06.327Z,51
2023-04-08T10:43:13.836Z,54
2023-04-08T10:44:20.601Z,45
2023-04-08T10:45:30.111Z,40
2023-04-08T10:46:36.967Z,38
2023-04-08T10:47:43.614Z,58
2023-04-08T10:48:50.332Z,32
2023-04-08T10:50:05.127Z,25
2023-04-08T10:51:19.970Z,48
2023-04-08T10:52:26.726Z,31
2023-04-08T10:53:33.522Z,43
2023-04-08T10:54:40.293Z,40
2023-04-08T10:55:47.037Z,54
2023-04-08T10:56:53.916Z,55
2023-04-08T10:58:00.699Z,37
2023-04-08T10:59:12.479Z,39
2023-04-08T11:00:30.461Z,42
2023-04-08T11:01:40.072Z,60
2023-04-08T11:02:46.985Z,56
2023-04-08T11:03:54.037Z,32
2023-04-08T11:05:00.400Z,25
2023-04-08T11:06:07.193Z,25
2023-04-08T11:07:13.981Z,30
2023-04-08T11:08:21.072Z,39
2023-04-08T11:09:32.677Z,42
2023-04-08T11:10:39.494Z,44
2023-04-08T11:11:46.142Z,43
2023-04-08T11:12:52.894Z,40
2023-04-08T11:13:59.687Z,42
2023-04-08T11:15:06.573Z,46
2023-04-08T11:16:17.994Z,54
2023-04-08T11:17:20.345Z,31
2023-04-08T11:18:27.150Z,47
2023-04-08T11:19:33.831Z,42
2023-04-08T11:20:40.711Z,45
2023-04-08T11:21:47.375Z,32
2023-04-08T11:22:54.042Z,48
2023-04-08T11:24:00.734Z,53
2023-04-08T11:25:10.122Z,49
2023-04-08T11:26:17.012Z,53
2023-04-08T11:27:23.855Z,59
2023-04-08T11:28:30.571Z,56
2023-04-08T11:29:37.278Z,52
2023-04-08T11:30:43.953Z,40
2023-04-08T11:31:50.731Z,37
2023-04-08T11:32:57.449Z,29
2023-04-08T11:34:04.219Z,32
2023-04-08T11:35:10.918Z,40
2023-04-08T11:36:17.710Z,41
2023-04-08T11:37:24.623Z,45
2023-04-08T11:38:31.337Z,41
2023-04-08T11:39:38.126Z,51
2023-04-08T11:40:47.613Z,42
2023-04-08T11:42:00.257Z,43
2023-04-08T11:43:06.971Z,45
2023-04-08T11:44:13.722Z,25
2023-04-08T11:45:20.496Z,29
2023-04-08T11:46:27.447Z,36
2023-04-08T11:47:34.129Z,51
2023-04-08T11:48:40.837Z,43
2023-04-08T11:49:47.600Z,39
2023-04-08T11:50:54.356Z,29
2023-04-08T11:52:06.146Z,45
2023-04-08T11:53:12.832Z,34
2023-04-08T11:54:25.188Z,31
2023-04-08T11:55:35.022Z,28
2023-04-08T11:56:41.716Z,25
2023-04-08T11:57:48.512Z,27
2023-04-08T11:58:55.342Z,37
2023-04-08T12:00:02.043Z,38
2023-04-08T12:01:08.949Z,34
2023-04-08T12:02:15.771Z,35
2023-04-08T12:03:22.710Z,25
2023-04-08T12:04:29.539Z,33
2023-04-08T12:05:36.127Z,25
2023-04-08T12:06:42.961Z,36
2023-04-08T12:07:49.786Z,47
2023-04-08T12:08:56.664Z,34
2023-04-08T12:10:03.393Z,26
2023-04-08T12:11:19.481Z,31
2023-04-08T12:12:17.132Z,39
2023-04-08T12:13:23.823Z,39
2023-04-08T12:14:30.597Z,42
2023-04-08T12:15:37.402Z,43
2023-04-08T12:16:44.214Z,39
2023-04-08T12:17:51.080Z,34
2023-04-08T12:18:57.624Z,25
2023-04-08T12:20:04.598Z,28
2023-04-08T12:21:11.665Z,29
2023-04-08T12:22:18.354Z,25
2023-04-08T12:23:25.010Z,36
2023-04-08T12:24:31.822Z,35
2023-04-08T12:25:38.683Z,43
2023-04-08T12:26:45.390Z,48
2023-04-08T12:27:52.231Z,59
2023-04-08T12:28:59.038Z,45
2023-04-08T12:30:05.958Z,25
2023-04-08T12:31:13.022Z,27
2023-04-08T12:32:19.824Z,25
2023-04-08T12:33:26.510Z,31
2023-04-08T12:34:33.221Z,25
2023-04-08T12:35:39.966Z,31
2023-04-08T12:36:46.758Z,25
2023-04-08T12:37:53.637Z,35
2023-04-08T12:39:00.342Z,45
2023-04-08T12:40:07.193Z,38
2023-04-08T12:41:13.977Z,37
2023-04-08T12:42:20.707Z,36
2023-04-08T12:43:27.562Z,53
2023-04-08T12:44:34.397Z,32
2023-04-08T12:45:41.130Z,28
2023-04-08T12:46:47.814Z,30
2023-04-08T12:47:54.537Z,40
2023-04-08T12:49:04.451Z,44
2023-04-08T12:50:08.278Z,36
2023-04-08T12:51:15.105Z,37
2023-04-08T12:52:21.908Z,29
2023-04-08T12:53:28.698Z,38
2023-04-08T12:54:35.536Z,42
2023-04-08T12:55:43.898Z,45
2023-04-08T12:56:48.881Z,33
2023-04-08T12:57:55.575Z,39
2023-04-08T12:59:02.309Z,48
2023-04-08T13:00:09.163Z,40
2023-04-08T13:01:16.296Z,40
2023-04-08T13:02:23.138Z,54
2023-04-08T13:03:29.874Z,51
2023-04-08T13:04:36.558Z,38
2023-04-08T13:05:43.961Z,43
2023-04-08T13:06:50.189Z,47
2023-04-08T13:07:56.939Z,49
2023-04-08T13:09:03.657Z,44
2023-04-08T13:10:10.488Z,44
2023-04-08T13:11:17.396Z,41
2023-04-08T13:12:24.238Z,35
2023-04-08T13:13:31.067Z,35
2023-04-08T13:14:37.896Z,34
2023-04-08T13:15:44.724Z,42
2023-04-08T13:16:51.642Z,41
2023-04-08T13:17:58.912Z,53
2023-04-08T13:19:05.649Z,40
2023-04-08T13:20:12.419Z,31
2023-04-08T13:21:19.112Z,32
2023-04-08T13:22:25.900Z,36
2023-04-08T13:23:32.657Z,31
2023-04-08T13:24:39.454Z,34
2023-04-08T13:25:46.114Z,28
2023-04-08T13:26:52.838Z,37
2023-04-08T13:27:59.682Z,35
2023-04-08T13:29:06.409Z,48
2023-04-08T13:30:13.137Z,37
2023-04-08T13:31:19.823Z,42
2023-04-08T13:32:26.596Z,48
2023-04-08T13:33:33.425Z,44
2023-04-08T13:34:40.220Z,35
2023-04-08T13:35:46.975Z,44
2023-04-08T13:36:53.666Z,39
2023-04-08T13:38:00.408Z,48
2023-04-08T13:39:07.233Z,44
2023-04-08T13:40:14.033Z,33
2023-04-08T13:41:20.794Z,45
2023-04-08T13:42:27.642Z,53
2023-04-08T13:43:37.393Z,39
2023-04-08T13:44:44.236Z,30
2023-04-08T13:45:51.062Z,51
2023-04-08T13:46:57.847Z,38
2023-04-08T13:48:04.614Z,48
2023-04-08T13:49:11.315Z,53
2023-04-08T13:50:17.976Z,27
2023-04-08T13:51:24.766Z,48
2023-04-08T13:52:31.736Z,50
2023-04-08T13:53:38.486Z,51
2023-04-08T13:54:45.267Z,34
2023-04-08T13:55:51.973Z,48
2023-04-08T13:56:58.793Z,52
2023-04-08T13:58:08.830Z,55
2023-04-08T13:59:12.429Z,52
2023-04-08T14:00:19.200Z,55
2023-04-08T14:01:26.115Z,52
2023-04-08T14:02:32.809Z,42
2023-04-08T14:03:39.540Z,57
2023-04-08T14:04:46.563Z,48
2023-04-08T14:05:53.205Z,57
2023-04-08T14:06:59.940Z,39
2023-04-08T14:08:06.745Z,40
2023-04-08T14:09:13.536Z,58
2023-04-08T14:10:20.282Z,44
2023-04-08T14:11:27.123Z,63
2023-04-08T14:12:33.848Z,66
2023-04-08T14:13:40.711Z,42
2023-04-08T14:14:47.458Z,40
2023-04-08T14:15:54.213Z,48
2023-04-08T14:17:01.045Z,57
2023-04-08T14:18:10.065Z,63
2023-04-08T14:19:14.585Z,68
2023-04-08T14:20:21.258Z,56
2023-04-08T14:21:27.913Z,53
2023-04-08T14:22:34.698Z,70
2023-04-08T14:23:41.445Z,50
2023-04-08T14:24:48.160Z,60
2023-04-08T14:25:55.005Z,77
2023-04-08T14:27:01.844Z,78
2023-04-08T14:28:08.731Z,70
2023-04-08T14:29:15.514Z,83
2023-04-08T14:30:22.254Z,79
2023-04-08T14:31:29.124Z,93
2023-04-08T14:32:35.941Z,90
2023-04-08T14:33:42.648Z,90
2023-04-08T14:34:49.380Z,91
2023-04-08T14:35:56.185Z,94
2023-04-08T14:37:02.964Z,77
2023-04-08T14:38:09.717Z,95
2023-04-08T14:39:16.581Z,95
2023-04-08T14:40:23.335Z,100
2023-04-08T14:41:30.120Z,103
2023-04-08T14:42:36.939Z,103
2023-04-08T14:43:43.685Z,110
2023-04-08T14:44:50.552Z,110
2023-04-08T14:45:57.306Z,105
2023-04-08T14:47:04.171Z,115
2023-04-08T14:48:11.059Z,108
2023-04-08T14:49:17.849Z,107
2023-04-08T14:50:24.533Z,100
2023-04-08T14:51:31.258Z,116
2023-04-08T14:52:38.136Z,118
2023-04-08T14:53:44.921Z,116
2023-04-08T14:54:51.573Z,124
2023-04-08T14:55:58.375Z,111
2023-04-08T14:57:05.222Z,121
2023-04-08T14:58:12.057Z,116
2023-04-08T14:59:19.015Z,117
2023-04-08T15:00:25.756Z,109
2023-04-08T15:01:32.529Z,117
2023-04-08T15:02:39.252Z,96
2023-04-08T15:03:46.049Z,115
2023-04-08T15:04:52.778Z,116
2023-04-08T15:05:59.498Z,128
2023-04-08T15:07:06.339Z,121
2023-04-08T15:08:13.102Z,119
2023-04-08T15:09:19.912Z,118
2023-04-08T15:10:26.554Z,118
2023-04-08T15:11:33.322Z,129
2023-04-08T15:12:40.150Z,119
2023-04-08T15:13:47.050Z,124
2023-04-08T15:14:53.884Z,123
2023-04-08T15:16:00.712Z,120
2023-04-08T15:17:07.509Z,98
2023-04-08T15:18:14.256Z,116
2023-04-08T15:19:21.114Z,110
2023-04-08T15:20:27.833Z,110
2023-04-08T15:21:34.620Z,122
2023-04-08T15:22:41.349Z,116
2023-04-08T15:23:48.149Z,111
2023-04-08T15:24:54.956Z,113
2023-04-08T15:26:01.698Z,101
2023-04-08T15:27:08.497Z,99
2023-04-08T15:28:15.252Z,120
2023-04-08T15:29:21.979Z,109
2023-04-08T15:30:28.818Z,113
2023-04-08T15:31:35.757Z,116
2023-04-08T15:32:42.291Z,120
2023-04-08T15:33:49.072Z,122
2023-04-08T15:34:55.958Z,118
2023-04-08T15:36:02.834Z,110
2023-04-08T15:37:09.697Z,110
2023-04-08T15:38:16.493Z,116
2023-04-08T15:39:23.161Z,111
2023-04-08T15:40:29.903Z,109
2023-04-08T15:41:39.654Z,116
2023-04-08T15:42:46.429Z,113
2023-04-08T15:43:53.207Z,115
2023-04-08T15:44:59.954Z,113
2023-04-08T15:46:06.790Z,117
2023-04-08T15:47:13.650Z,116
2023-04-08T15:48:20.397Z,115
2023-04-08T15:49:27.063Z,115
2023-04-08T15:50:33.838Z,122
2023-04-08T15:51:40.706Z,125
2023-04-08T15:52:47.490Z,110
2023-04-08T15:53:54.297Z,101
2023-04-08T15:55:01.074Z,110
2023-04-08T15:56:07.992Z,124